Time;durP1;ratioP1;P1;durP2;ratioP2;P2;SDS_P1;SDS_P2;PMS_P1;PMS_P2;Temp;Humidity;BMP_temperature;BMP_pressure;BME280_temperature;BME280_humidity;BME280_pressure;Samples;Min_cycle;Max_cycle;Signal;HPM_P1;HPM_P2
2022/01/30 00:02:18;;;;;;;25.25;1.88;;;5.80;99.90;;;;;;5072175;28;20052;-73
2022/01/30 00:04:44;;;;;;;32.85;2.72;;;5.80;99.90;;;;;;5054278;28;20620;-72
2022/01/30 00:07:09;;;;;;;31.77;2.83;;;5.70;99.90;;;;;;5053892;28;20096;-73
2022/01/30 00:09:35;;;;;;;19.80;2.90;;;5.90;99.90;;;;;;5037507;28;20485;-72
2022/01/30 00:12:04;;;;;;;19.15;1.73;;;5.70;99.90;;;;;;5054408;28;20444;-73
2022/01/30 00:14:33;;;;;;;19.13;1.90;;;5.70;99.90;;;;;;5071826;28;20106;-72
2022/01/30 00:17:23;;;;;;;25.42;3.75;;;5.80;99.90;;;;;;5038562;28;20056;-72
2022/01/30 00:19:58;;;;;;;23.00;1.52;;;5.70;99.90;;;;;;5054975;28;20059;-73
2022/01/30 00:25:01;;;;;;;21.92;1.98;;;5.70;99.90;;;;;;5054262;28;20056;-72
2022/01/30 00:27:47;;;;;;;19.38;1.67;;;5.60;99.90;;;;;;5054378;28;20132;-73
2022/01/30 00:30:14;;;;;;;21.25;1.98;;;5.50;99.90;;;;;;5053775;28;20049;-73
2022/01/30 00:32:40;;;;;;;28.42;2.58;;;5.50;99.90;;;;;;5037872;28;20536;-73
2022/01/30 00:35:09;;;;;;;25.83;2.45;;;5.40;99.90;;;;;;5057260;28;20071;-73
2022/01/30 00:37:41;;;;;;;26.05;2.30;;;5.40;99.90;;;;;;5041326;28;20048;-73
2022/01/30 00:40:08;;;;;;;35.58;2.42;;;5.40;99.90;;;;;;5057685;28;20044;-73
2022/01/30 00:42:34;;;;;;;;;;;5.30;99.90;;;;;;5040895;28;20496;-72
2022/01/30 00:45:00;;;;;;;22.20;1.63;;;5.30;99.90;;;;;;5057722;28;19921;-73
2022/01/30 00:47:26;;;;;;;22.02;1.50;;;5.30;99.90;;;;;;5057757;28;20075;-73
2022/01/30 00:49:52;;;;;;;28.52;1.75;;;5.30;99.90;;;;;;5041030;28;20048;-72
2022/01/30 00:52:18;;;;;;;27.98;3.33;;;5.40;99.90;;;;;;5075565;28;20051;-72
2022/01/30 00:54:44;;;;;;;25.65;2.58;;;5.30;99.90;;;;;;5075048;28;20489;-73
2022/01/30 00:57:11;;;;;;;26.50;1.92;;;5.30;99.90;;;;;;5057206;28;20087;-72
2022/01/30 00:59:36;;;;;;;35.70;3.42;;;5.40;99.90;;;;;;5040289;28;20082;-73
2022/01/30 01:02:03;;;;;;;26.67;2.30;;;5.40;99.90;;;;;;5074767;28;20040;-73
2022/01/30 01:04:29;;;;;;;35.25;3.38;;;5.40;99.90;;;;;;5075101;28;20142;-74
2022/01/30 01:06:55;;;;;;;29.85;2.75;;;5.50;99.90;;;;;;5040516;28;20056;-72
2022/01/30 01:09:25;;;;;;;26.02;2.53;;;5.60;99.90;;;;;;5057313;28;20048;-72
2022/01/30 01:25:17;;;;;;;24.25;2.20;;;5.60;99.90;;;;;;5075036;28;20044;-74
2022/01/30 01:27:43;;;;;;;29.13;2.90;;;5.70;99.90;;;;;;5040198;28;20048;-74
2022/01/30 01:30:10;;;;;;;26.15;2.03;;;5.70;99.90;;;;;;5040713;28;20053;-72
2022/01/30 01:32:36;;;;;;;24.17;1.67;;;5.70;99.90;;;;;;5074569;28;20389;-73
2022/01/30 01:35:02;;;;;;;24.75;2.17;;;5.60;99.90;;;;;;5056009;28;20055;-73
2022/01/30 01:37:27;;;;;;;22.90;2.08;;;5.60;99.90;;;;;;5056786;28;20090;-71
2022/01/30 01:39:54;;;;;;;28.60;2.22;;;5.50;99.90;;;;;;5039093;28;20049;-75
2022/01/30 01:42:20;;;;;;;22.85;2.78;;;5.50;99.90;;;;;;5023753;28;20045;-73
2022/01/30 01:44:50;;;;;;;16.30;1.50;;;5.50;99.90;;;;;;5055855;28;20439;-73
2022/01/30 01:47:19;;;;;;;13.15;1.33;;;5.40;99.90;;;;;;5074104;28;20045;-73
2022/01/30 01:49:47;;;;;;;17.13;1.25;;;5.50;99.90;;;;;;5040240;28;20087;-73
2022/01/30 01:52:24;;;;;;;18.77;1.85;;;5.50;99.90;;;;;;5075295;28;20156;-73
2022/01/30 01:54:53;;;;;;;32.70;2.13;;;5.40;99.90;;;;;;5074652;28;20048;-74
2022/01/30 01:57:20;;;;;;;23.52;2.05;;;5.40;99.90;;;;;;5039920;28;20059;-74
2022/01/30 01:59:46;;;;;;;27.17;2.38;;;5.50;99.90;;;;;;5039666;28;20400;-72
2022/01/30 02:02:12;;;;;;;12.38;1.77;;;5.50;99.90;;;;;;5056145;28;20056;-73
2022/01/30 02:04:41;;;;;;;12.73;1.00;;;5.40;99.90;;;;;;5056112;28;20051;-73
2022/01/30 02:09:51;;;;;;;26.60;2.03;;;5.40;99.90;;;;;;5055784;28;20048;-72
2022/01/30 02:12:24;;;;;;;21.77;1.77;;;5.20;99.90;;;;;;5056173;28;20048;-73
2022/01/30 02:27:58;;;;;;;24.33;1.67;;;5.30;99.90;;;;;;5073408;28;20048;-73
2022/01/30 02:30:29;;;;;;;;;;;5.40;99.90;;;;;;5040150;28;20044;-73
2022/01/30 02:32:56;;;;;;;26.75;2.53;;;5.40;99.90;;;;;;5055678;28;19920;-73
2022/01/30 02:35:22;;;;;;;30.33;2.30;;;5.50;99.90;;;;;;5038901;28;20044;-73
2022/01/30 02:37:52;;;;;;;28.27;2.47;;;5.60;99.90;;;;;;5055328;28;20472;-72
2022/01/30 02:40:18;;;;;;;20.83;2.17;;;5.60;99.90;;;;;;5039471;28;20044;-73
2022/01/30 02:42:48;;;;;;;34.05;2.95;;;5.70;99.90;;;;;;5055911;28;20060;-72
2022/01/30 02:45:16;;;;;;;26.98;3.25;;;5.80;99.90;;;;;;5072960;28;20055;-73
2022/01/30 02:47:52;;;;;;;36.30;3.65;;;5.70;99.90;;;;;;5072657;28;20084;-73
2022/01/30 02:50:34;;;;;;;30.23;2.63;;;5.80;99.90;;;;;;5055329;28;20092;-74
2022/01/30 02:53:03;;;;;;;38.20;2.83;;;5.80;99.90;;;;;;5055757;28;20051;-74
2022/01/30 02:55:29;;;;;;;37.08;3.17;;;5.60;99.90;;;;;;5054096;28;20131;-73
2022/01/30 02:57:56;;;;;;;20.13;1.85;;;5.70;99.90;;;;;;5039013;28;20137;-73
2022/01/30 03:00:22;;;;;;;18.97;1.63;;;5.70;99.90;;;;;;5038278;28;20052;-74
2022/01/30 03:02:48;;;;;;;22.75;2.60;;;5.80;99.90;;;;;;5038443;28;20055;-73
2022/01/30 03:05:13;;;;;;;35.30;3.63;;;5.80;99.90;;;;;;5038214;28;20044;-74
2022/01/30 03:07:39;;;;;;;27.95;2.65;;;5.90;99.90;;;;;;5038289;28;20109;-74
2022/01/30 03:10:06;;;;;;;20.40;1.98;;;5.90;99.90;;;;;;5054809;28;20118;-75
2022/01/30 03:12:31;;;;;;;33.35;2.78;;;6.00;99.90;;;;;;5038269;28;20052;-74
2022/01/30 03:14:57;;;;;;;23.83;2.08;;;6.10;99.90;;;;;;5054500;28;20040;-74
2022/01/30 03:17:23;;;;;;;22.33;1.73;;;6.00;99.90;;;;;;5073099;28;20107;-74
2022/01/30 03:19:49;;;;;;;30.17;2.85;;;6.10;99.90;;;;;;5054657;28;20047;-74
2022/01/30 03:22:15;;;;;;;18.70;1.95;;;6.00;99.90;;;;;;5055337;28;20076;-75
2022/01/30 03:24:41;;;;;;;35.55;3.53;;;6.10;99.90;;;;;;5037849;28;20052;-75
2022/01/30 03:27:10;;;;;;;23.17;2.40;;;6.20;99.90;;;;;;5054774;28;20082;-74
2022/01/30 03:29:37;;;;;;;22.25;2.20;;;6.20;99.90;;;;;;5072561;28;20053;-74
2022/01/30 03:32:04;;;;;;;32.25;2.20;;;6.10;99.90;;;;;;5055487;28;20222;-74
2022/01/30 03:34:30;;;;;;;28.35;2.25;;;6.20;99.90;;;;;;5038134;28;20048;-73
2022/01/30 03:36:56;;;;;;;19.00;2.05;;;6.10;99.90;;;;;;5022340;28;20529;-73
2022/01/30 03:39:22;;;;;;;31.27;2.38;;;6.10;99.90;;;;;;5037953;28;20047;-75
2022/01/30 03:41:48;;;;;;;28.85;2.00;;;6.00;99.90;;;;;;5072520;28;20048;-73
2022/01/30 03:44:14;;;;;;;29.67;3.40;;;5.90;99.90;;;;;;5072834;28;20587;-74
2022/01/30 03:46:40;;;;;;;27.65;3.38;;;5.80;99.90;;;;;;5037967;28;20047;-75
2022/01/30 03:49:05;;;;;;;28.23;2.83;;;5.80;99.90;;;;;;5054637;28;20057;-73
2022/01/30 03:51:31;;;;;;;30.50;3.67;;;5.70;99.90;;;;;;5054893;28;20532;-73
2022/01/30 03:53:57;;;;;;;29.35;2.60;;;5.60;99.90;;;;;;5072223;28;20040;-72
2022/01/30 03:56:23;;;;;;;44.63;3.97;;;5.50;99.90;;;;;;5037621;28;20045;-72
2022/01/30 03:58:48;;;;;;;29.83;2.45;;;5.50;99.90;;;;;;5054894;28;20091;-74
2022/01/30 04:01:14;;;;;;;37.58;3.00;;;5.40;99.90;;;;;;5038346;28;20044;-72
2022/01/30 04:03:40;;;;;;;39.40;4.75;;;5.40;99.90;;;;;;5055243;28;20056;-75
2022/01/30 04:06:07;;;;;;;42.00;3.33;;;5.40;99.90;;;;;;5072239;28;20044;-74
2022/01/30 04:08:33;;;;;;;37.38;3.35;;;5.40;99.90;;;;;;5058129;28;20048;-72
2022/01/30 04:10:59;;;;;;;32.00;2.85;;;5.30;99.90;;;;;;5041366;28;20140;-73
2022/01/30 04:13:25;;;;;;;43.08;4.30;;;5.30;99.90;;;;;;5058615;28;20056;-73
2022/01/30 04:15:51;;;;;;;39.85;2.70;;;5.20;99.90;;;;;;5025226;28;20056;-74
2022/01/30 04:18:17;;;;;;;43.05;3.65;;;5.20;99.90;;;;;;5041523;28;20048;-74
2022/01/30 04:20:43;;;;;;;44.15;4.22;;;5.30;99.90;;;;;;5041485;28;20055;-73
2022/01/30 04:23:09;;;;;;;48.25;4.15;;;5.20;99.90;;;;;;5057888;28;20550;-75
2022/01/30 04:25:35;;;;;;;41.78;2.97;;;5.40;99.90;;;;;;5076290;28;20045;-75
2022/01/30 04:28:01;;;;;;;44.38;4.85;;;5.30;99.90;;;;;;5041220;28;20041;-75
2022/01/30 04:30:27;;;;;;;45.63;4.53;;;5.20;99.90;;;;;;5058099;28;20044;-71
2022/01/30 04:32:53;;;;;;;50.63;2.90;;;5.10;99.90;;;;;;5041733;28;20043;-72
2022/01/30 04:35:24;;;;;;;42.17;3.30;;;5.00;99.90;;;;;;5075432;28;20148;-74
2022/01/30 05:02:08;;;;;;;38.67;3.80;;;5.20;99.90;;;;;;5075567;28;20150;-73
2022/01/30 05:09:31;;;;;;;37.13;4.13;;;5.60;99.90;;;;;;5075497;28;20478;-75
2022/01/30 05:11:57;;;;;;;31.25;2.55;;;5.60;99.90;;;;;;5074977;28;20083;-73
2022/01/30 05:14:26;;;;;;;32.90;4.13;;;5.60;99.90;;;;;;5056802;28;20044;-71
2022/01/30 05:16:52;;;;;;;39.63;3.80;;;5.60;99.90;;;;;;5056953;28;20053;-72
2022/01/30 05:19:18;;;;;;;36.55;3.45;;;5.60;99.90;;;;;;5040279;28;20446;-71
2022/01/30 05:21:44;;;;;;;34.10;3.30;;;5.60;99.90;;;;;;5024045;28;20048;-73
2022/01/30 05:24:11;;;;;;;36.88;3.83;;;5.50;99.90;;;;;;5056940;28;20048;-73
2022/01/30 05:26:46;;;;;;;56.58;4.53;;;5.50;99.90;;;;;;5074995;28;20070;-72
2022/01/30 05:29:14;;;;;;;42.72;4.22;;;5.50;99.90;;;;;;5056993;28;20345;-73
2022/01/30 05:31:41;;;;;;;51.42;6.95;;;5.40;99.90;;;;;;5040732;28;20071;-73
2022/01/30 05:34:07;;;;;;;32.45;3.35;;;5.30;99.90;;;;;;5056285;28;20045;-73
2022/01/30 05:36:34;;;;;;;42.70;3.42;;;5.40;99.90;;;;;;5056048;28;20087;-72
2022/01/30 05:39:00;;;;;;;37.27;3.00;;;5.20;99.90;;;;;;5056447;28;20048;-73
2022/01/30 05:41:27;;;;;;;37.70;3.45;;;5.20;99.90;;;;;;5040091;28;20626;-74
2022/01/30 05:43:57;;;;;;;45.33;6.30;;;5.20;99.90;;;;;;5023607;28;20384;-74
2022/01/30 05:46:35;;;;;;;36.67;4.82;;;5.20;99.90;;;;;;5057161;28;20048;-74
2022/01/30 05:49:03;;;;;;;35.83;3.40;;;5.30;99.90;;;;;;5056571;28;20393;-74
2022/01/30 05:51:29;;;;;;;45.63;5.70;;;5.30;99.90;;;;;;5074133;28;20433;-75
2022/01/30 05:53:54;;;;;;;46.78;4.13;;;5.30;99.90;;;;;;5039453;28;20135;-76
2022/01/30 05:56:20;;;;;;;49.22;4.18;;;5.30;99.90;;;;;;5039115;28;20058;-72
2022/01/30 05:58:47;;;;;;;42.40;4.60;;;5.30;99.90;;;;;;5039617;28;20087;-74
2022/01/30 06:01:13;;;;;;;36.70;4.93;;;5.30;99.90;;;;;;5039174;28;20052;-73
2022/01/30 06:03:38;;;;;;;60.42;5.43;;;5.30;99.90;;;;;;5039304;28;20512;-73
2022/01/30 06:06:07;;;;;;;58.08;6.13;;;5.30;99.90;;;;;;5039582;28;20429;-74
2022/01/30 06:11:17;;;;;;;48.67;5.50;;;5.30;99.90;;;;;;5027694;28;20094;-73
2022/01/30 06:13:43;;;;;;;42.70;4.90;;;5.30;99.90;;;;;;5055954;28;20079;-73
2022/01/30 06:16:09;;;;;;;43.45;4.18;;;5.10;99.90;;;;;;5055685;28;20036;-72
2022/01/30 06:18:35;;;;;;;56.13;4.22;;;5.10;99.90;;;;;;5039099;28;20045;-74
2022/01/30 06:21:01;;;;;;;38.70;4.63;;;5.10;99.90;;;;;;5039236;28;20044;-73
2022/01/30 06:23:27;;;;;;;44.55;3.58;;;4.90;99.90;;;;;;5039196;28;20489;-74
2022/01/30 06:25:53;;;;;;;46.33;4.97;;;4.90;99.90;;;;;;5055645;28;20127;-73
2022/01/30 06:28:19;;;;;;;48.10;5.17;;;5.00;99.90;;;;;;5038891;28;20045;-73
2022/01/30 06:30:45;;;;;;;57.35;5.28;;;4.90;99.90;;;;;;5073428;28;20281;-73
2022/01/30 06:33:11;;;;;;;55.45;4.75;;;5.00;99.90;;;;;;5073368;28;20131;-73
2022/01/30 06:35:36;;;;;;;46.75;6.22;;;5.00;99.90;;;;;;5055599;28;20051;-73
2022/01/30 06:38:02;;;;;;;42.65;5.07;;;5.10;99.90;;;;;;5073394;28;20411;-74
2022/01/30 06:40:28;;;;;;;57.83;6.30;;;5.10;99.90;;;;;;5055798;28;20098;-74
2022/01/30 06:42:54;;;;;;;58.22;6.57;;;5.30;99.90;;;;;;5055253;28;20049;-73
2022/01/30 06:45:20;;;;;;;43.05;6.47;;;5.40;99.90;;;;;;5038948;28;20044;-77
2022/01/30 06:47:47;;;;;;;60.72;8.05;;;5.60;99.90;;;;;;5055376;28;20059;-74
2022/01/30 06:50:14;;;;;;;47.78;5.80;;;5.60;99.90;;;;;;5056067;28;20123;-73
2022/01/30 06:52:40;;;;;;;62.70;6.55;;;5.60;99.90;;;;;;5073564;28;20040;-73
2022/01/30 06:55:07;;;;;;;46.67;5.32;;;5.50;99.90;;;;;;5054927;28;20083;-72
2022/01/30 06:57:33;;;;;;;46.65;5.97;;;5.50;99.90;;;;;;5073022;28;20053;-73
2022/01/30 06:59:59;;;;;;;51.42;5.70;;;5.60;99.90;;;;;;5055950;28;20056;-73
2022/01/30 07:02:25;;;;;;;58.20;5.90;;;5.50;99.90;;;;;;5073316;28;20453;-74
2022/01/30 07:04:50;;;;;;;62.75;5.00;;;5.40;99.90;;;;;;5055510;28;20081;-74
2022/01/30 07:07:16;;;;;;;48.75;5.68;;;5.40;99.90;;;;;;5073131;28;20049;-74
2022/01/30 07:09:42;;;;;;;45.28;5.93;;;5.40;99.90;;;;;;5072930;28;20424;-74
2022/01/30 07:12:08;;;;;;;49.00;4.47;;;5.50;99.90;;;;;;5054896;28;20050;-73
2022/01/30 07:14:34;;;;;;;51.83;5.63;;;5.40;99.90;;;;;;5054816;28;20083;-74
2022/01/30 07:17:00;;;;;;;47.08;4.53;;;5.50;99.90;;;;;;5073214;28;20076;-73
2022/01/30 07:19:26;;;;;;;55.75;6.13;;;5.50;99.90;;;;;;5073005;28;20424;-73
2022/01/30 07:21:52;;;;;;;67.93;8.10;;;5.60;99.90;;;;;;5054868;28;20056;-72
2022/01/30 07:24:18;;;;;;;45.42;6.28;;;5.70;99.90;;;;;;5038224;28;20443;-73
2022/01/30 07:26:44;;;;;;;63.03;8.52;;;5.80;99.90;;;;;;5054860;28;20044;-73
2022/01/30 07:29:10;;;;;;;53.78;5.78;;;5.80;99.90;;;;;;5038638;28;20044;-72
2022/01/30 07:31:36;;;;;;;38.53;4.78;;;5.70;99.90;;;;;;5054759;28;20048;-73
2022/01/30 07:34:03;;;;;;;58.70;6.38;;;5.60;99.90;;;;;;5038120;28;20049;-74
2022/01/30 07:36:33;;;;;;;58.60;7.40;;;5.60;99.90;;;;;;5072507;28;20079;-74
2022/01/30 07:38:59;;;;;;;52.22;6.18;;;5.50;99.90;;;;;;5054716;28;20063;-71
2022/01/30 07:41:25;;;;;;;53.40;4.82;;;5.50;99.90;;;;;;5056170;28;20048;-73
2022/01/30 07:43:50;;;;;;;58.63;6.05;;;5.50;99.90;;;;;;5061367;28;20603;-73
2022/01/30 07:46:17;;;;;;;49.40;5.05;;;5.50;99.90;;;;;;5078899;28;20048;-72
2022/01/30 07:48:42;;;;;;;59.72;6.25;;;5.60;99.90;;;;;;5061195;28;20076;-73
2022/01/30 07:51:08;;;;;;;56.00;4.97;;;5.70;99.90;;;;;;5079433;28;20103;-72
2022/01/30 07:53:35;;;;;;;48.80;5.65;;;5.70;99.90;;;;;;5078786;28;20088;-72
2022/01/30 07:56:01;;;;;;;52.93;5.83;;;5.70;99.90;;;;;;5061466;28;20265;-73
2022/01/30 07:58:27;;;;;;;48.22;5.53;;;5.80;99.90;;;;;;5060779;28;20059;-73
2022/01/30 08:00:52;;;;;;;38.38;4.20;;;5.80;99.90;;;;;;5061307;28;20044;-75
2022/01/30 08:03:18;;;;;;;41.95;4.03;;;5.90;99.90;;;;;;5045179;28;20333;-72
2022/01/30 08:05:44;;;;;;;51.10;4.72;;;6.00;99.90;;;;;;5044955;28;20037;-73
2022/01/30 08:08:10;;;;;;;48.97;4.63;;;6.00;99.90;;;;;;5061092;28;20064;-73
2022/01/30 08:10:36;;;;;;;53.78;6.82;;;6.00;99.90;;;;;;5061229;28;20048;-75
2022/01/30 08:13:02;;;;;;;65.13;6.22;;;6.00;99.90;;;;;;5045210;28;20495;-75
2022/01/30 08:15:28;;;;;;;61.85;5.63;;;6.10;99.90;;;;;;5060983;28;20503;-74
2022/01/30 08:17:54;;;;;;;48.35;6.10;;;6.10;99.90;;;;;;5043978;28;20048;-73
2022/01/30 08:20:21;;;;;;;41.97;4.50;;;6.20;99.90;;;;;;5044424;28;20049;-75
2022/01/30 08:22:53;;;;;;;61.92;6.15;;;6.20;99.90;;;;;;5061262;28;20048;-73
2022/01/30 08:25:21;;;;;;;51.40;5.93;;;6.20;99.90;;;;;;5028290;28;20051;-73
2022/01/30 08:27:48;;;;;;;45.78;5.85;;;6.20;98.10;;;;;;5061816;28;20045;-74
2022/01/30 08:30:14;;;;;;;63.25;6.22;;;6.20;97.40;;;;;;5044574;28;20048;-74
2022/01/30 08:32:45;;;;;;;54.60;6.03;;;6.20;97.00;;;;;;5060901;28;20059;-74
2022/01/30 08:35:13;;;;;;;56.47;5.78;;;6.10;97.70;;;;;;5027630;28;20119;-73
2022/01/30 08:37:38;;;;;;;;;;;6.10;97.90;;;;;;5079110;28;20054;-74
2022/01/30 08:40:12;;;;;;;57.10;6.65;;;6.10;97.10;;;;;;5044091;28;20015;-73
2022/01/30 08:42:38;;;;;;;40.90;4.18;;;6.20;95.30;;;;;;5043997;28;20048;-73
2022/01/30 08:45:05;;;;;;;58.03;5.50;;;6.20;96.20;;;;;;5043877;28;20040;-74
2022/01/30 08:47:32;;;;;;;63.78;6.00;;;6.10;96.10;;;;;;5044080;28;20048;-73
2022/01/30 08:49:58;;;;;;;52.70;4.93;;;6.20;94.50;;;;;;5060377;28;20056;-73
2022/01/30 08:52:24;;;;;;;41.47;4.45;;;6.20;93.70;;;;;;5044368;28;20131;-73
2022/01/30 08:54:51;;;;;;;49.80;5.30;;;6.20;94.80;;;;;;5056078;28;20048;-73
2022/01/30 08:57:17;;;;;;;56.22;5.93;;;6.20;95.60;;;;;;5057440;28;20078;-74
2022/01/30 08:59:43;;;;;;;54.15;6.68;;;6.20;94.40;;;;;;5056902;28;20091;-73
2022/01/30 09:02:09;;;;;;;53.85;6.40;;;6.20;93.80;;;;;;5057187;28;20091;-74
2022/01/30 09:04:35;;;;;;;57.95;6.00;;;6.20;91.50;;;;;;5008181;28;20368;-72
2022/01/30 09:07:01;;;;;;;55.33;5.47;;;6.30;87.50;;;;;;5040528;28;20118;-71
2022/01/30 09:09:27;;;;;;;54.13;6.88;;;6.30;89.40;;;;;;5040383;28;20166;-72
2022/01/30 09:11:53;;;;;;;58.95;6.38;;;6.30;90.00;;;;;;5040433;28;20047;-73
2022/01/30 09:14:19;;;;;;;49.22;4.93;;;6.30;90.00;;;;;;5040325;28;20052;-72
2022/01/30 09:16:46;;;;;;;50.15;5.63;;;6.30;90.10;;;;;;5056938;28;20531;-74
2022/01/30 09:19:12;;;;;;;59.75;5.85;;;6.40;88.50;;;;;;5057743;28;20040;-73
2022/01/30 09:21:37;;;;;;;52.70;5.10;;;6.40;87.70;;;;;;5040266;28;20485;-73
2022/01/30 09:24:03;;;;;;;45.63;4.45;;;6.50;85.70;;;;;;5040803;28;20048;-74
2022/01/30 09:26:29;;;;;;;47.28;6.35;;;6.70;86.20;;;;;;5056927;28;20051;-73
2022/01/30 09:28:55;;;;;;;62.20;7.40;;;6.70;84.80;;;;;;5040222;28;20044;-73
2022/01/30 09:31:21;;;;;;;57.63;6.78;;;6.80;83.30;;;;;;5040622;28;20052;-73
2022/01/30 09:33:47;;;;;;;58.58;6.28;;;6.80;85.00;;;;;;5074707;28;20044;-75
2022/01/30 09:36:14;;;;;;;40.78;5.03;;;6.80;82.30;;;;;;5056746;28;20459;-74
2022/01/30 09:38:40;;;;;;;47.58;5.15;;;6.70;78.70;;;;;;5040305;28;20040;-74
2022/01/30 09:41:08;;;;;;;50.20;5.07;;;6.70;79.60;;;;;;5074453;28;20044;-73
2022/01/30 09:43:35;;;;;;;48.95;5.47;;;6.60;80.60;;;;;;5056000;28;20482;-72
2022/01/30 09:46:02;;;;;;;51.53;5.28;;;6.50;78.80;;;;;;5074806;28;20050;-73
2022/01/30 09:48:31;;;;;;;48.83;5.30;;;6.50;78.90;;;;;;5056345;28;20213;-74
2022/01/30 09:50:58;;;;;;;49.08;4.30;;;6.50;81.20;;;;;;5056176;28;20052;-75
2022/01/30 09:53:24;;;;;;;46.95;6.57;;;6.50;80.40;;;;;;5039918;28;20044;-75
2022/01/30 09:55:50;;;;;;;44.00;4.20;;;6.50;80.30;;;;;;5039763;28;20067;-75
2022/01/30 09:58:16;;;;;;;53.65;7.43;;;6.50;81.90;;;;;;5040019;28;20386;-74
2022/01/30 10:00:41;;;;;;;46.50;5.63;;;6.50;79.10;;;;;;5023119;28;20485;-73
2022/01/30 10:03:07;;;;;;;46.38;4.80;;;6.50;77.20;;;;;;5056842;28;20047;-74
2022/01/30 10:05:36;;;;;;;52.65;5.78;;;6.50;79.70;;;;;;5056271;28;20063;-76
2022/01/30 10:08:03;;;;;;;61.35;6.10;;;6.60;77.20;;;;;;5039352;28;20067;-75
2022/01/30 10:10:30;;;;;;;49.17;5.50;;;6.70;74.10;;;;;;5056259;28;20063;-74
2022/01/30 10:13:05;;;;;;;46.80;4.20;;;6.80;74.20;;;;;;5056306;28;20117;-73
2022/01/30 10:15:47;;;;;;;51.33;6.38;;;6.90;75.90;;;;;;5056526;28;20117;-74
2022/01/30 10:18:13;;;;;;;46.53;4.85;;;7.00;77.70;;;;;;5056099;28;20053;-74
2022/01/30 10:20:40;;;;;;;48.80;5.80;;;7.00;76.00;;;;;;5039687;28;20040;-74
2022/01/30 10:23:09;;;;;;;48.60;5.83;;;6.90;76.90;;;;;;5038881;28;20086;-76
2022/01/30 10:25:46;;;;;;;68.32;7.13;;;7.00;79.40;;;;;;5055893;28;20040;-74
2022/01/30 10:28:17;;;;;;;57.08;5.85;;;7.10;80.40;;;;;;5039429;28;20053;-74
2022/01/30 10:30:50;;;;;;;55.75;6.80;;;7.20;81.60;;;;;;5074093;28;20048;-72
2022/01/30 10:33:23;;;;;;;53.40;5.65;;;7.20;82.30;;;;;;5039037;28;20559;-74
2022/01/30 10:35:57;;;;;;;64.50;6.28;;;7.30;81.30;;;;;;5055746;28;20488;-76
2022/01/30 10:38:34;;;;;;;57.05;5.47;;;7.30;81.80;;;;;;5073946;28;20040;-73
2022/01/30 10:41:12;;;;;;;64.28;7.10;;;7.30;82.70;;;;;;5073461;28;20544;-73
2022/01/30 10:44:00;;;;;;;53.85;5.95;;;7.20;80.20;;;;;;5039308;28;20048;-74
2022/01/30 10:46:39;;;;;;;65.35;6.40;;;7.30;83.60;;;;;;5073686;28;20051;-73
2022/01/30 10:49:12;;;;;;;55.38;6.20;;;7.30;83.10;;;;;;5055176;28;20052;-73
2022/01/30 10:51:38;;;;;;;45.90;4.90;;;7.30;85.80;;;;;;5039003;28;20489;-74
2022/01/30 10:54:12;;;;;;;49.70;5.20;;;7.40;87.00;;;;;;5038040;28;20049;-75
2022/01/30 10:56:39;;;;;;;47.70;5.97;;;7.40;87.70;;;;;;5055763;28;20052;-74
2022/01/30 10:59:15;;;;;;;61.45;7.38;;;7.40;87.10;;;;;;5039412;28;20052;-75
2022/01/30 11:01:50;;;;;;;57.20;6.82;;;7.20;86.50;;;;;;5055427;28;20045;-75
2022/01/30 11:04:23;;;;;;;56.33;6.28;;;7.10;87.20;;;;;;5056366;28;20037;-75
2022/01/30 11:06:49;;;;;;;50.53;5.57;;;7.10;89.60;;;;;;5038462;28;20053;-75
2022/01/30 11:09:20;;;;;;;50.22;4.82;;;7.00;89.60;;;;;;5039046;28;20131;-75
2022/01/30 11:11:53;;;;;;;50.22;6.78;;;7.00;92.10;;;;;;5055372;28;20105;-73
2022/01/30 11:14:23;;;;;;;61.97;8.05;;;6.90;90.90;;;;;;5038685;28;20048;-74
2022/01/30 11:17:11;;;;;;;51.88;6.00;;;6.90;86.90;;;;;;5072418;28;20524;-73
2022/01/30 11:19:39;;;;;;;75.28;8.23;;;7.00;86.70;;;;;;5055024;28;20055;-73
2022/01/30 11:22:19;;;;;;;45.75;5.13;;;7.10;89.90;;;;;;5038402;28;20056;-74
2022/01/30 11:24:53;;;;;;;48.72;4.45;;;7.20;90.80;;;;;;5072329;28;20049;-73
2022/01/30 11:27:21;;;;;;;54.53;5.25;;;7.30;86.90;;;;;;5055724;28;20059;-74
2022/01/30 11:29:48;;;;;;;62.20;5.57;;;7.30;86.20;;;;;;5054431;28;20051;-74
2022/01/30 11:32:16;;;;;;;59.13;6.40;;;7.40;84.70;;;;;;5072497;28;20044;-75
2022/01/30 11:34:42;;;;;;;;;;;7.50;85.90;;;;;;5021984;28;20060;-73
2022/01/30 11:37:09;;;;;;;59.28;6.28;;;7.60;80.80;;;;;;5072969;28;19921;-74
2022/01/30 11:39:37;;;;;;;50.72;5.35;;;7.70;75.10;;;;;;5072487;28;20041;-74
2022/01/30 11:42:21;;;;;;;64.00;7.28;;;7.80;76.80;;;;;;5054737;28;20046;-74
2022/01/30 11:45:27;;;;;;;58.85;5.10;;;7.90;78.10;;;;;;5038260;28;20055;-74
2022/01/30 11:48:03;;;;;;;53.03;5.95;;;7.90;77.60;;;;;;5053883;28;20461;-74
2022/01/30 11:50:34;;;;;;;42.90;5.85;;;7.70;74.80;;;;;;5038197;28;20044;-74
2022/01/30 11:53:11;;;;;;;52.22;5.57;;;7.70;74.80;;;;;;5038008;28;20136;-74
2022/01/30 11:55:54;;;;;;;42.03;4.93;;;7.60;75.20;;;;;;5054469;28;20382;-74
2022/01/30 11:58:40;;;;;;;55.65;5.32;;;7.70;76.60;;;;;;5055031;28;20084;-74
2022/01/30 12:01:13;;;;;;;51.73;6.93;;;7.90;76.80;;;;;;5054353;28;20055;-73
2022/01/30 12:03:51;;;;;;;57.45;6.18;;;8.00;77.30;;;;;;5054346;28;20370;-74
2022/01/30 12:06:20;;;;;;;49.97;7.03;;;8.10;76.20;;;;;;5038082;28;20052;-74
2022/01/30 12:08:50;;;;;;;67.88;6.35;;;7.90;76.60;;;;;;5053784;28;20048;-74
2022/01/30 12:11:37;;;;;;;58.72;6.63;;;7.80;77.00;;;;;;5005293;28;20048;-73
2022/01/30 12:14:03;;;;;;;;;;;7.40;74.60;;;;;;5054696;28;20146;-73
2022/01/30 12:17:00;;;;;;;47.83;5.35;;;7.20;77.60;;;;;;5072063;28;19998;-75
2022/01/30 12:19:41;;;;;;;53.95;6.07;;;7.10;75.80;;;;;;5072420;28;20054;-75
2022/01/30 12:22:16;;;;;;;57.58;6.03;;;7.00;73.90;;;;;;5054321;28;20053;-76
2022/01/30 12:24:50;;;;;;;47.40;5.10;;;7.10;72.20;;;;;;5037655;28;20131;-75
2022/01/30 12:27:16;;;;;;;57.53;5.85;;;7.10;71.20;;;;;;5072666;28;20059;-74
2022/01/30 12:29:44;;;;;;;36.08;4.43;;;7.10;68.70;;;;;;5024596;28;20048;-74
2022/01/30 12:32:23;;;;;;;42.88;3.60;;;7.10;68.60;;;;;;5075911;28;20128;-74
2022/01/30 12:34:54;;;;;;;57.38;6.45;;;7.20;69.50;;;;;;5041558;28;20091;-75
2022/01/30 12:37:25;;;;;;;45.55;5.88;;;7.20;68.10;;;;;;5041500;28;20063;-73
2022/01/30 12:39:52;;;;;;;48.45;5.10;;;7.20;68.60;;;;;;5075901;28;20060;-74
2022/01/30 12:42:19;;;;;;;57.95;6.95;;;7.20;69.80;;;;;;5058178;28;20170;-74
2022/01/30 12:44:46;;;;;;;36.40;3.80;;;7.30;69.20;;;;;;5041294;28;20044;-74
2022/01/30 12:47:13;;;;;;;36.55;3.50;;;7.30;72.90;;;;;;5040437;28;20151;-74
2022/01/30 12:49:51;;;;;;;57.83;7.00;;;7.30;69.90;;;;;;5040772;28;20075;-73
2022/01/30 12:52:31;;;;;;;51.67;5.10;;;7.20;68.30;;;;;;5075451;28;20048;-74
2022/01/30 12:55:01;;;;;;;55.13;6.63;;;7.20;71.40;;;;;;5040700;28;20036;-73
2022/01/30 12:57:30;;;;;;;46.90;5.65;;;7.20;72.00;;;;;;5041517;28;20055;-74
2022/01/30 12:59:59;;;;;;;56.35;6.03;;;7.20;71.00;;;;;;5040586;28;20052;-75
2022/01/30 13:02:28;;;;;;;47.03;4.70;;;7.30;70.40;;;;;;5040483;28;20110;-74
2022/01/30 13:05:05;;;;;;;50.95;4.55;;;7.40;72.00;;;;;;5056665;28;20068;-75
2022/01/30 13:07:32;;;;;;;43.20;4.25;;;7.50;72.40;;;;;;5055463;28;20513;-74
2022/01/30 13:10:13;;;;;;;44.75;5.38;;;7.50;71.80;;;;;;5058097;28;20056;-74
2022/01/30 13:12:42;;;;;;;55.30;5.10;;;7.40;70.20;;;;;;5041296;28;20087;-75
2022/01/30 13:15:13;;;;;;;48.80;5.53;;;7.50;73.90;;;;;;5056938;28;20048;-73
2022/01/30 13:17:40;;;;;;;43.92;5.68;;;7.50;74.50;;;;;;5057804;28;20048;-75
2022/01/30 13:20:08;;;;;;;52.90;6.13;;;7.50;73.30;;;;;;5056964;28;20143;-74
2022/01/30 13:22:40;;;;;;;52.85;6.88;;;7.40;74.50;;;;;;5040217;28;20504;-75
2022/01/30 13:25:15;;;;;;;44.63;5.78;;;7.30;75.00;;;;;;5056961;28;20048;-75
2022/01/30 13:27:44;;;;;;;50.28;5.43;;;7.40;76.80;;;;;;5057648;28;20048;-75
2022/01/30 13:30:10;;;;;;;45.75;5.03;;;7.30;77.50;;;;;;5040660;28;20053;-74
2022/01/30 13:32:38;;;;;;;58.85;9.35;;;7.30;78.40;;;;;;5040435;28;20155;-75
2022/01/30 13:35:16;;;;;;;60.05;6.75;;;7.40;76.50;;;;;;5057116;28;20094;-75
2022/01/30 13:37:42;;;;;;;;;;;7.50;76.50;;;;;;5057577;28;20052;-75
2022/01/30 13:40:19;;;;;;;58.83;7.75;;;7.70;78.60;;;;;;5039741;28;19925;-76
2022/01/30 13:48:05;;;;;;;38.50;4.25;;;7.70;75.80;;;;;;5075174;28;20059;-76
2022/01/30 13:50:37;;;;;;;45.60;5.68;;;7.60;74.60;;;;;;5057548;28;20054;-75
2022/01/30 13:53:06;;;;;;;34.92;4.13;;;7.40;70.30;;;;;;5056902;28;20048;-75
2022/01/30 13:55:35;;;;;;;39.92;4.97;;;7.20;74.10;;;;;;5040409;28;20045;-73
2022/01/30 13:58:02;;;;;;;43.15;4.43;;;7.10;69.00;;;;;;5057538;28;20064;-75
2022/01/30 14:00:32;;;;;;;39.05;4.30;;;7.00;72.90;;;;;;5057044;28;20480;-75
2022/01/30 14:03:04;;;;;;;50.40;4.55;;;7.00;71.10;;;;;;5041754;28;20052;-73
2022/01/30 14:05:37;;;;;;;49.78;5.13;;;7.00;72.30;;;;;;5057300;28;20060;-75